sensor_id;sensor_type;location;lat;lon;timestamp;temperature;humidity
22065;DHT22;11197;53.110;8.468;2023-02-01T00:01:37;6.10;99.90
22065;DHT22;11197;53.110;8.468;2023-02-01T00:04:04;6.10;99.90
22065;DHT22;11197;53.110;8.468;2023-02-01T00:06:30;6.10;99.90
22065;DHT22;11197;53.110;8.468;2023-02-01T00:08:56;6.10;99.90
22065;DHT22;11197;53.110;8.468;2023-02-01T00:11:23;6.10;99.90
22065;DHT22;11197;53.110;8.468;2023-02-01T00:13:50;6.10;99.90
22065;DHT22;11197;53.110;8.468;2023-02-01T00:16:21;6.10;99.90
22065;DHT22;11197;53.110;8.468;2023-02-01T00:18:49;6.10;99.90
22065;DHT22;11197;53.110;8.468;2023-02-01T00:21:19;6.20;99.90
22065;DHT22;11197;53.110;8.468;2023-02-01T00:23:45;6.20;99.90
22065;DHT22;11197;53.110;8.468;2023-02-01T00:26:17;6.10;99.90
22065;DHT22;11197;53.110;8.468;2023-02-01T00:28:43;6.20;99.90
22065;DHT22;11197;53.110;8.468;2023-02-01T00:31:09;6.20;99.90
22065;DHT22;11197;53.110;8.468;2023-02-01T00:33:35;6.20;99.90
22065;DHT22;11197;53.110;8.468;2023-02-01T00:36:04;6.20;99.90
22065;DHT22;11197;53.110;8.468;2023-02-01T00:38:31;6.20;99.90
22065;DHT22;11197;53.110;8.468;2023-02-01T00:43:38;6.20;99.90
22065;DHT22;11197;53.110;8.468;2023-02-01T00:46:04;6.20;99.90
22065;DHT22;11197;53.110;8.468;2023-02-01T00:48:30;6.20;99.90
22065;DHT22;11197;53.110;8.468;2023-02-01T00:51:09;6.20;99.90
22065;DHT22;11197;53.110;8.468;2023-02-01T00:53:38;6.20;99.90
22065;DHT22;11197;53.110;8.468;2023-02-01T00:56:05;6.20;99.90
22065;DHT22;11197;53.110;8.468;2023-02-01T00:58:31;6.20;99.90
22065;DHT22;11197;53.110;8.468;2023-02-01T01:03:46;6.20;99.90
22065;DHT22;11197;53.110;8.468;2023-02-01T01:06:16;6.20;99.90
22065;DHT22;11197;53.110;8.468;2023-02-01T01:08:43;6.20;99.90
22065;DHT22;11197;53.110;8.468;2023-02-01T01:11:18;6.20;99.90
22065;DHT22;11197;53.110;8.468;2023-02-01T01:13:47;6.20;99.90
22065;DHT22;11197;53.110;8.468;2023-02-01T01:16:14;6.20;99.90
22065;DHT22;11197;53.110;8.468;2023-02-01T01:18:41;6.20;99.90
22065;DHT22;11197;53.110;8.468;2023-02-01T01:21:08;6.20;99.90
22065;DHT22;11197;53.110;8.468;2023-02-01T01:23:35;6.20;99.90
22065;DHT22;11197;53.110;8.468;2023-02-01T01:26:05;6.20;99.90
22065;DHT22;11197;53.110;8.468;2023-02-01T01:28:32;6.20;99.90
22065;DHT22;11197;53.110;8.468;2023-02-01T01:30:58;6.20;99.90
22065;DHT22;11197;53.110;8.468;2023-02-01T01:33:24;6.20;99.90
22065;DHT22;11197;53.110;8.468;2023-02-01T01:35:49;6.30;99.90
22065;DHT22;11197;53.110;8.468;2023-02-01T01:38:15;6.30;99.90
22065;DHT22;11197;53.110;8.468;2023-02-01T01:40:45;6.30;99.90
22065;DHT22;11197;53.110;8.468;2023-02-01T01:43:17;6.20;99.90
22065;DHT22;11197;53.110;8.468;2023-02-01T01:45:45;6.20;99.90
22065;DHT22;11197;53.110;8.468;2023-02-01T01:48:24;6.20;99.90
22065;DHT22;11197;53.110;8.468;2023-02-01T01:50:59;6.20;99.90
22065;DHT22;11197;53.110;8.468;2023-02-01T01:53:28;6.20;99.90
22065;DHT22;11197;53.110;8.468;2023-02-01T01:55:56;6.20;99.90
22065;DHT22;11197;53.110;8.468;2023-02-01T01:58:25;6.20;99.90
22065;DHT22;11197;53.110;8.468;2023-02-01T02:00:52;6.20;99.90
22065;DHT22;11197;53.110;8.468;2023-02-01T02:03:32;6.20;99.90
22065;DHT22;11197;53.110;8.468;2023-02-01T02:06:02;6.20;99.90
22065;DHT22;11197;53.110;8.468;2023-02-01T02:08:29;6.30;99.90
22065;DHT22;11197;53.110;8.468;2023-02-01T02:10:55;6.30;99.90
22065;DHT22;11197;53.110;8.468;2023-02-01T02:13:40;6.30;99.90
22065;DHT22;11197;53.110;8.468;2023-02-01T02:21:16;6.20;99.90
22065;DHT22;11197;53.110;8.468;2023-02-01T02:40:47;6.20;99.90
22065;DHT22;11197;53.110;8.468;2023-02-01T02:43:23;6.30;99.90
22065;DHT22;11197;53.110;8.468;2023-02-01T02:46:24;6.30;99.90
22065;DHT22;11197;53.110;8.468;2023-02-01T02:49:29;6.20;99.90
22065;DHT22;11197;53.110;8.468;2023-02-01T02:52:02;6.30;99.90
22065;DHT22;11197;53.110;8.468;2023-02-01T02:54:50;6.30;99.90
22065;DHT22;11197;53.110;8.468;2023-02-01T02:57:30;6.20;99.90
22065;DHT22;11197;53.110;8.468;2023-02-01T03:00:21;6.20;99.90
22065;DHT22;11197;53.110;8.468;2023-02-01T03:03:07;6.20;99.90
22065;DHT22;11197;53.110;8.468;2023-02-01T03:05:51;6.20;99.90
22065;DHT22;11197;53.110;8.468;2023-02-01T03:08:20;6.20;99.90
22065;DHT22;11197;53.110;8.468;2023-02-01T03:13:54;6.20;99.90
22065;DHT22;11197;53.110;8.468;2023-02-01T03:16:34;6.20;99.90
22065;DHT22;11197;53.110;8.468;2023-02-01T03:19:22;6.20;99.90
22065;DHT22;11197;53.110;8.468;2023-02-01T03:22:08;6.20;99.90
22065;DHT22;11197;53.110;8.468;2023-02-01T03:24:44;6.20;99.90
22065;DHT22;11197;53.110;8.468;2023-02-01T03:30:15;6.20;99.90
22065;DHT22;11197;53.110;8.468;2023-02-01T03:32:47;6.10;99.90
22065;DHT22;11197;53.110;8.468;2023-02-01T03:40:55;6.10;99.90
22065;DHT22;11197;53.110;8.468;2023-02-01T03:43:23;6.00;99.90
22065;DHT22;11197;53.110;8.468;2023-02-01T03:45:56;6.00;99.90
22065;DHT22;11197;53.110;8.468;2023-02-01T03:48:24;6.00;99.90
22065;DHT22;11197;53.110;8.468;2023-02-01T03:50:55;6.00;99.90
22065;DHT22;11197;53.110;8.468;2023-02-01T03:53:23;6.00;99.90
22065;DHT22;11197;53.110;8.468;2023-02-01T03:55:51;5.90;99.90
22065;DHT22;11197;53.110;8.468;2023-02-01T03:58:22;5.90;99.90
22065;DHT22;11197;53.110;8.468;2023-02-01T04:00:59;5.90;99.90
22065;DHT22;11197;53.110;8.468;2023-02-01T04:03:27;5.80;99.90
22065;DHT22;11197;53.110;8.468;2023-02-01T04:05:53;5.80;99.90
22065;DHT22;11197;53.110;8.468;2023-02-01T04:08:23;5.80;99.90
22065;DHT22;11197;53.110;8.468;2023-02-01T04:10:49;5.80;99.90
22065;DHT22;11197;53.110;8.468;2023-02-01T04:13:15;5.80;99.90
22065;DHT22;11197;53.110;8.468;2023-02-01T04:15:41;5.80;99.90
22065;DHT22;11197;53.110;8.468;2023-02-01T04:18:07;5.80;99.90
22065;DHT22;11197;53.110;8.468;2023-02-01T04:20:33;5.80;99.90
22065;DHT22;11197;53.110;8.468;2023-02-01T04:22:58;5.80;99.90
22065;DHT22;11197;53.110;8.468;2023-02-01T04:25:24;5.80;99.90
22065;DHT22;11197;53.110;8.468;2023-02-01T04:27:51;5.80;99.90
22065;DHT22;11197;53.110;8.468;2023-02-01T04:30:17;5.80;99.90
22065;DHT22;11197;53.110;8.468;2023-02-01T04:32:44;5.80;99.90
22065;DHT22;11197;53.110;8.468;2023-02-01T04:35:10;5.80;99.90
22065;DHT22;11197;53.110;8.468;2023-02-01T04:37:37;5.80;99.90
22065;DHT22;11197;53.110;8.468;2023-02-01T04:40:03;5.80;99.90
22065;DHT22;11197;53.110;8.468;2023-02-01T04:42:29;5.80;99.90
22065;DHT22;11197;53.110;8.468;2023-02-01T04:44:55;5.80;99.90
22065;DHT22;11197;53.110;8.468;2023-02-01T04:47:21;5.80;99.90
22065;DHT22;11197;53.110;8.468;2023-02-01T04:49:47;5.80;99.90
22065;DHT22;11197;53.110;8.468;2023-02-01T04:52:13;5.80;99.90
22065;DHT22;11197;53.110;8.468;2023-02-01T04:54:39;5.80;99.90
22065;DHT22;11197;53.110;8.468;2023-02-01T04:57:04;5.80;99.90
22065;DHT22;11197;53.110;8.468;2023-02-01T04:59:30;5.80;99.90
22065;DHT22;11197;53.110;8.468;2023-02-01T05:01:56;5.80;99.90
22065;DHT22;11197;53.110;8.468;2023-02-01T05:04:22;5.80;99.90
22065;DHT22;11197;53.110;8.468;2023-02-01T05:06:51;5.80;99.90
22065;DHT22;11197;53.110;8.468;2023-02-01T05:09:16;5.80;99.90
22065;DHT22;11197;53.110;8.468;2023-02-01T05:11:42;5.90;99.90
22065;DHT22;11197;53.110;8.468;2023-02-01T05:14:27;5.90;99.90
22065;DHT22;11197;53.110;8.468;2023-02-01T05:16:53;5.90;99.90
22065;DHT22;11197;53.110;8.468;2023-02-01T05:19:19;5.80;99.90
22065;DHT22;11197;53.110;8.468;2023-02-01T05:21:44;5.80;99.90
22065;DHT22;11197;53.110;8.468;2023-02-01T05:24:10;5.80;99.90
22065;DHT22;11197;53.110;8.468;2023-02-01T05:26:42;5.80;99.90
22065;DHT22;11197;53.110;8.468;2023-02-01T05:29:09;5.80;99.90
22065;DHT22;11197;53.110;8.468;2023-02-01T05:31:35;5.80;99.90
22065;DHT22;11197;53.110;8.468;2023-02-01T05:34:01;5.80;99.90
22065;DHT22;11197;53.110;8.468;2023-02-01T05:36:31;5.80;99.90
22065;DHT22;11197;53.110;8.468;2023-02-01T05:38:57;5.80;99.90
22065;DHT22;11197;53.110;8.468;2023-02-01T05:41:23;5.80;99.90
22065;DHT22;11197;53.110;8.468;2023-02-01T05:43:49;5.80;99.90
22065;DHT22;11197;53.110;8.468;2023-02-01T05:46:15;5.80;99.90
22065;DHT22;11197;53.110;8.468;2023-02-01T05:48:41;5.80;99.90
22065;DHT22;11197;53.110;8.468;2023-02-01T05:51:08;5.80;99.90
22065;DHT22;11197;53.110;8.468;2023-02-01T05:53:34;5.80;99.90
22065;DHT22;11197;53.110;8.468;2023-02-01T05:56:00;5.80;99.90
22065;DHT22;11197;53.110;8.468;2023-02-01T05:58:26;5.80;99.90
22065;DHT22;11197;53.110;8.468;2023-02-01T06:00:53;5.80;99.90
22065;DHT22;11197;53.110;8.468;2023-02-01T06:03:19;5.80;99.90
22065;DHT22;11197;53.110;8.468;2023-02-01T06:05:45;5.80;99.90
22065;DHT22;11197;53.110;8.468;2023-02-01T06:08:12;5.80;99.90
22065;DHT22;11197;53.110;8.468;2023-02-01T06:10:38;5.80;99.90
22065;DHT22;11197;53.110;8.468;2023-02-01T06:13:04;5.80;99.90
22065;DHT22;11197;53.110;8.468;2023-02-01T06:15:30;5.80;99.90
22065;DHT22;11197;53.110;8.468;2023-02-01T06:17:57;5.80;99.90
22065;DHT22;11197;53.110;8.468;2023-02-01T06:20:23;5.80;99.90
22065;DHT22;11197;53.110;8.468;2023-02-01T06:22:49;5.80;99.90
22065;DHT22;11197;53.110;8.468;2023-02-01T06:25:15;5.90;99.90
22065;DHT22;11197;53.110;8.468;2023-02-01T06:27:42;5.90;99.90
22065;DHT22;11197;53.110;8.468;2023-02-01T06:30:10;5.90;99.90
22065;DHT22;11197;53.110;8.468;2023-02-01T06:32:39;5.90;99.90
22065;DHT22;11197;53.110;8.468;2023-02-01T06:35:09;5.80;99.90
22065;DHT22;11197;53.110;8.468;2023-02-01T06:37:42;5.80;99.90
22065;DHT22;11197;53.110;8.468;2023-02-01T06:40:09;5.80;99.90
22065;DHT22;11197;53.110;8.468;2023-02-01T06:42:35;5.80;99.90
22065;DHT22;11197;53.110;8.468;2023-02-01T06:45:01;5.80;99.90
22065;DHT22;11197;53.110;8.468;2023-02-01T06:47:27;5.80;99.90
22065;DHT22;11197;53.110;8.468;2023-02-01T06:49:53;5.80;99.90
22065;DHT22;11197;53.110;8.468;2023-02-01T06:52:18;5.90;99.90
22065;DHT22;11197;53.110;8.468;2023-02-01T06:54:44;5.90;99.90
22065;DHT22;11197;53.110;8.468;2023-02-01T06:57:10;5.90;99.90
22065;DHT22;11197;53.110;8.468;2023-02-01T06:59:36;5.90;99.90
22065;DHT22;11197;53.110;8.468;2023-02-01T07:02:02;5.90;99.90
22065;DHT22;11197;53.110;8.468;2023-02-01T07:04:28;5.90;99.90
22065;DHT22;11197;53.110;8.468;2023-02-01T07:06:54;5.90;99.90
22065;DHT22;11197;53.110;8.468;2023-02-01T07:09:20;6.00;99.90
22065;DHT22;11197;53.110;8.468;2023-02-01T07:11:46;6.00;99.90
22065;DHT22;11197;53.110;8.468;2023-02-01T07:14:12;6.00;99.90
22065;DHT22;11197;53.110;8.468;2023-02-01T07:16:38;6.10;99.90
22065;DHT22;11197;53.110;8.468;2023-02-01T07:19:05;6.10;99.90
22065;DHT22;11197;53.110;8.468;2023-02-01T07:21:31;6.00;99.90
22065;DHT22;11197;53.110;8.468;2023-02-01T07:23:58;6.00;99.90
22065;DHT22;11197;53.110;8.468;2023-02-01T07:26:24;6.10;99.90
22065;DHT22;11197;53.110;8.468;2023-02-01T07:28:49;6.00;99.90
22065;DHT22;11197;53.110;8.468;2023-02-01T07:31:17;6.00;99.90
22065;DHT22;11197;53.110;8.468;2023-02-01T07:33:47;6.00;99.90
22065;DHT22;11197;53.110;8.468;2023-02-01T07:36:15;6.00;99.90
22065;DHT22;11197;53.110;8.468;2023-02-01T07:38:41;6.00;99.90
22065;DHT22;11197;53.110;8.468;2023-02-01T07:41:10;6.00;99.90
22065;DHT22;11197;53.110;8.468;2023-02-01T07:43:37;6.00;99.90
22065;DHT22;11197;53.110;8.468;2023-02-01T07:46:04;6.00;99.90
22065;DHT22;11197;53.110;8.468;2023-02-01T07:48:30;6.00;99.90
22065;DHT22;11197;53.110;8.468;2023-02-01T07:50:58;6.00;99.90
22065;DHT22;11197;53.110;8.468;2023-02-01T07:53:25;6.00;99.90
22065;DHT22;11197;53.110;8.468;2023-02-01T07:55:51;6.00;99.90
22065;DHT22;11197;53.110;8.468;2023-02-01T07:58:17;6.00;99.90
22065;DHT22;11197;53.110;8.468;2023-02-01T08:00:43;5.90;99.90
22065;DHT22;11197;53.110;8.468;2023-02-01T08:03:27;5.90;99.90
22065;DHT22;11197;53.110;8.468;2023-02-01T08:05:54;6.00;99.90
22065;DHT22;11197;53.110;8.468;2023-02-01T08:08:21;5.90;99.90
22065;DHT22;11197;53.110;8.468;2023-02-01T08:10:47;6.00;99.90
22065;DHT22;11197;53.110;8.468;2023-02-01T08:13:13;6.00;99.90
22065;DHT22;11197;53.110;8.468;2023-02-01T08:15:39;6.00;99.90
22065;DHT22;11197;53.110;8.468;2023-02-01T08:18:05;6.00;99.90
22065;DHT22;11197;53.110;8.468;2023-02-01T08:20:31;6.10;99.90
22065;DHT22;11197;53.110;8.468;2023-02-01T08:22:57;6.10;99.90
22065;DHT22;11197;53.110;8.468;2023-02-01T08:25:23;6.10;99.90
22065;DHT22;11197;53.110;8.468;2023-02-01T08:27:49;6.10;99.90
22065;DHT22;11197;53.110;8.468;2023-02-01T08:30:16;6.10;99.90
22065;DHT22;11197;53.110;8.468;2023-02-01T08:32:41;6.10;99.90
22065;DHT22;11197;53.110;8.468;2023-02-01T08:35:08;6.10;99.90
22065;DHT22;11197;53.110;8.468;2023-02-01T08:37:35;6.10;99.90
22065;DHT22;11197;53.110;8.468;2023-02-01T08:40:03;6.10;99.90
22065;DHT22;11197;53.110;8.468;2023-02-01T08:42:29;6.20;99.90
22065;DHT22;11197;53.110;8.468;2023-02-01T08:45:14;6.20;99.90
22065;DHT22;11197;53.110;8.468;2023-02-01T08:47:40;6.20;99.90
22065;DHT22;11197;53.110;8.468;2023-02-01T08:50:06;6.20;99.90
22065;DHT22;11197;53.110;8.468;2023-02-01T08:52:32;6.20;99.90
22065;DHT22;11197;53.110;8.468;2023-02-01T08:54:58;6.30;99.90
22065;DHT22;11197;53.110;8.468;2023-02-01T08:57:24;6.30;99.90
22065;DHT22;11197;53.110;8.468;2023-02-01T08:59:49;6.30;99.90
22065;DHT22;11197;53.110;8.468;2023-02-01T09:02:17;6.30;99.90
22065;DHT22;11197;53.110;8.468;2023-02-01T09:04:43;6.30;99.90
22065;DHT22;11197;53.110;8.468;2023-02-01T09:07:09;6.30;99.90
22065;DHT22;11197;53.110;8.468;2023-02-01T09:09:36;6.30;99.90
22065;DHT22;11197;53.110;8.468;2023-02-01T09:12:03;6.30;99.90
22065;DHT22;11197;53.110;8.468;2023-02-01T09:14:29;6.40;99.90
22065;DHT22;11197;53.110;8.468;2023-02-01T09:16:55;6.40;99.90
22065;DHT22;11197;53.110;8.468;2023-02-01T09:19:21;6.40;99.90
22065;DHT22;11197;53.110;8.468;2023-02-01T09:21:47;6.40;99.90
22065;DHT22;11197;53.110;8.468;2023-02-01T09:24:13;6.40;99.90
22065;DHT22;11197;53.110;8.468;2023-02-01T09:26:39;6.40;99.90
22065;DHT22;11197;53.110;8.468;2023-02-01T09:29:05;6.50;99.90
22065;DHT22;11197;53.110;8.468;2023-02-01T09:31:38;6.50;99.90
22065;DHT22;11197;53.110;8.468;2023-02-01T09:34:05;6.50;99.90
22065;DHT22;11197;53.110;8.468;2023-02-01T09:36:31;6.50;99.90
22065;DHT22;11197;53.110;8.468;2023-02-01T09:38:58;6.50;99.90
22065;DHT22;11197;53.110;8.468;2023-02-01T09:47:22;6.50;99.90
22065;DHT22;11197;53.110;8.468;2023-02-01T09:50:11;6.60;99.90
22065;DHT22;11197;53.110;8.468;2023-02-01T09:52:52;6.60;99.90
22065;DHT22;11197;53.110;8.468;2023-02-01T09:55:50;6.60;99.90
22065;DHT22;11197;53.110;8.468;2023-02-01T09:58:38;6.60;99.90
22065;DHT22;11197;53.110;8.468;2023-02-01T10:01:09;6.60;99.90
22065;DHT22;11197;53.110;8.468;2023-02-01T10:03:38;6.60;99.90
22065;DHT22;11197;53.110;8.468;2023-02-01T10:17:47;6.60;99.90
22065;DHT22;11197;53.110;8.468;2023-02-01T10:20:21;6.60;99.90
22065;DHT22;11197;53.110;8.468;2023-02-01T10:28:13;6.60;99.90
22065;DHT22;11197;53.110;8.468;2023-02-01T10:30:45;6.60;99.90
22065;DHT22;11197;53.110;8.468;2023-02-01T10:33:25;6.50;99.90
22065;DHT22;11197;53.110;8.468;2023-02-01T10:36:00;6.60;99.90
22065;DHT22;11197;53.110;8.468;2023-02-01T10:38:30;6.50;99.90
22065;DHT22;11197;53.110;8.468;2023-02-01T10:41:02;6.50;99.90
22065;DHT22;11197;53.110;8.468;2023-02-01T10:43:30;6.50;99.90
22065;DHT22;11197;53.110;8.468;2023-02-01T10:45:56;6.50;99.90
22065;DHT22;11197;53.110;8.468;2023-02-01T10:48:22;6.50;99.90
22065;DHT22;11197;53.110;8.468;2023-02-01T10:56:28;6.40;99.90
22065;DHT22;11197;53.110;8.468;2023-02-01T10:59:04;6.50;99.90
22065;DHT22;11197;53.110;8.468;2023-02-01T11:01:34;6.50;99.90
22065;DHT22;11197;53.110;8.468;2023-02-01T11:04:02;6.50;99.90
22065;DHT22;11197;53.110;8.468;2023-02-01T11:06:36;6.40;99.90
22065;DHT22;11197;53.110;8.468;2023-02-01T11:11:33;6.40;99.90
22065;DHT22;11197;53.110;8.468;2023-02-01T11:14:01;6.40;99.90
22065;DHT22;11197;53.110;8.468;2023-02-01T11:16:39;6.40;99.90
22065;DHT22;11197;53.110;8.468;2023-02-01T11:19:06;6.40;99.90
22065;DHT22;11197;53.110;8.468;2023-02-01T11:21:33;6.40;99.90
22065;DHT22;11197;53.110;8.468;2023-02-01T11:24:04;6.40;99.90
22065;DHT22;11197;53.110;8.468;2023-02-01T11:26:31;6.40;99.90
22065;DHT22;11197;53.110;8.468;2023-02-01T11:31:26;6.20;99.90
22065;DHT22;11197;53.110;8.468;2023-02-01T11:33:55;6.30;99.90
22065;DHT22;11197;53.110;8.468;2023-02-01T11:36:27;6.20;99.90
22065;DHT22;11197;53.110;8.468;2023-02-01T11:49:47;6.00;99.90
22065;DHT22;11197;53.110;8.468;2023-02-01T12:00:55;6.00;99.90
22065;DHT22;11197;53.110;8.468;2023-02-01T12:06:32;6.00;99.90
22065;DHT22;11197;53.110;8.468;2023-02-01T12:25:20;4.90;99.90
22065;DHT22;11197;53.110;8.468;2023-02-01T12:30:43;4.70;99.90
22065;DHT22;11197;53.110;8.468;2023-02-01T12:33:40;4.70;99.90
22065;DHT22;11197;53.110;8.468;2023-02-01T12:36:22;4.70;99.90
22065;DHT22;11197;53.110;8.468;2023-02-01T12:41:45;4.60;99.90
22065;DHT22;11197;53.110;8.468;2023-02-01T12:44:22;4.70;99.90
22065;DHT22;11197;53.110;8.468;2023-02-01T12:46:58;4.70;99.90
22065;DHT22;11197;53.110;8.468;2023-02-01T12:52:17;4.80;99.90
22065;DHT22;11197;53.110;8.468;2023-02-01T12:55:06;4.70;99.90
22065;DHT22;11197;53.110;8.468;2023-02-01T12:57:37;4.80;99.90
22065;DHT22;11197;53.110;8.468;2023-02-01T13:00:16;4.80;99.90
22065;DHT22;11197;53.110;8.468;2023-02-01T13:02:55;5.00;99.90
22065;DHT22;11197;53.110;8.468;2023-02-01T13:05:28;5.00;99.90
22065;DHT22;11197;53.110;8.468;2023-02-01T13:08:23;5.00;99.90
22065;DHT22;11197;53.110;8.468;2023-02-01T13:11:04;5.00;99.90
22065;DHT22;11197;53.110;8.468;2023-02-01T13:13:45;5.00;99.90
22065;DHT22;11197;53.110;8.468;2023-02-01T13:16:28;5.10;99.90
22065;DHT22;11197;53.110;8.468;2023-02-01T13:21:48;5.10;99.90
22065;DHT22;11197;53.110;8.468;2023-02-01T13:24:27;5.10;99.90
22065;DHT22;11197;53.110;8.468;2023-02-01T13:26:55;5.10;99.90
22065;DHT22;11197;53.110;8.468;2023-02-01T13:29:22;5.10;99.90
22065;DHT22;11197;53.110;8.468;2023-02-01T13:40:18;5.40;99.90
22065;DHT22;11197;53.110;8.468;2023-02-01T13:43:15;5.50;99.90
22065;DHT22;11197;53.110;8.468;2023-02-01T13:45:55;5.40;99.90
22065;DHT22;11197;53.110;8.468;2023-02-01T13:51:42;5.40;99.90
22065;DHT22;11197;53.110;8.468;2023-02-01T13:56:59;5.40;99.90
22065;DHT22;11197;53.110;8.468;2023-02-01T14:00:08;5.50;99.90
22065;DHT22;11197;53.110;8.468;2023-02-01T14:13:19;5.60;99.90
22065;DHT22;11197;53.110;8.468;2023-02-01T14:23:46;5.70;99.90
22065;DHT22;11197;53.110;8.468;2023-02-01T14:26:16;5.80;99.90
22065;DHT22;11197;53.110;8.468;2023-02-01T14:33:57;5.90;99.90
22065;DHT22;11197;53.110;8.468;2023-02-01T14:36:24;5.90;99.90
22065;DHT22;11197;53.110;8.468;2023-02-01T14:38:51;5.90;99.90
22065;DHT22;11197;53.110;8.468;2023-02-01T14:49:31;6.00;99.90
22065;DHT22;11197;53.110;8.468;2023-02-01T14:51:59;6.10;99.90
22065;DHT22;11197;53.110;8.468;2023-02-01T14:54:25;6.20;99.90
22065;DHT22;11197;53.110;8.468;2023-02-01T14:56:53;6.20;99.90
22065;DHT22;11197;53.110;8.468;2023-02-01T14:59:22;6.20;99.90
22065;DHT22;11197;53.110;8.468;2023-02-01T15:01:56;6.30;99.90
22065;DHT22;11197;53.110;8.468;2023-02-01T15:04:26;6.40;99.90
22065;DHT22;11197;53.110;8.468;2023-02-01T15:06:57;6.40;99.90
22065;DHT22;11197;53.110;8.468;2023-02-01T15:09:34;6.50;99.90
22065;DHT22;11197;53.110;8.468;2023-02-01T15:17:15;6.60;99.90
22065;DHT22;11197;53.110;8.468;2023-02-01T15:19:59;6.60;99.90
22065;DHT22;11197;53.110;8.468;2023-02-01T15:22:26;6.60;99.90
22065;DHT22;11197;53.110;8.468;2023-02-01T15:24:54;6.60;99.90
22065;DHT22;11197;53.110;8.468;2023-02-01T15:27:20;6.70;99.90
22065;DHT22;11197;53.110;8.468;2023-02-01T15:29:46;6.60;99.90
22065;DHT22;11197;53.110;8.468;2023-02-01T15:32:39;6.60;99.90
22065;DHT22;11197;53.110;8.468;2023-02-01T15:35:30;6.60;99.90
22065;DHT22;11197;53.110;8.468;2023-02-01T15:37:51;6.60;99.90
22065;DHT22;11197;53.110;8.468;2023-02-01T15:40:21;6.60;99.90
22065;DHT22;11197;53.110;8.468;2023-02-01T15:42:52;6.60;99.90
22065;DHT22;11197;53.110;8.468;2023-02-01T15:45:27;6.50;99.90
22065;DHT22;11197;53.110;8.468;2023-02-01T15:47:56;6.60;99.90
22065;DHT22;11197;53.110;8.468;2023-02-01T15:50:23;6.60;99.90
22065;DHT22;11197;53.110;8.468;2023-02-01T15:52:51;6.70;99.90
22065;DHT22;11197;53.110;8.468;2023-02-01T15:57:46;6.70;99.90
22065;DHT22;11197;53.110;8.468;2023-02-01T16:02:57;6.70;99.90
22065;DHT22;11197;53.110;8.468;2023-02-01T16:05:37;6.60;99.90
22065;DHT22;11197;53.110;8.468;2023-02-01T16:08:10;6.40;99.90
22065;DHT22;11197;53.110;8.468;2023-02-01T16:10:41;6.30;99.90
22065;DHT22;11197;53.110;8.468;2023-02-01T16:13:07;6.10;99.90
22065;DHT22;11197;53.110;8.468;2023-02-01T16:15:33;6.00;99.90
22065;DHT22;11197;53.110;8.468;2023-02-01T16:17:59;6.00;99.90
22065;DHT22;11197;53.110;8.468;2023-02-01T16:20:24;5.80;99.90
22065;DHT22;11197;53.110;8.468;2023-02-01T16:22:50;5.80;99.90
22065;DHT22;11197;53.110;8.468;2023-02-01T16:25:16;5.80;99.90
22065;DHT22;11197;53.110;8.468;2023-02-01T16:27:42;5.70;99.90
22065;DHT22;11197;53.110;8.468;2023-02-01T16:30:09;5.50;99.90
22065;DHT22;11197;53.110;8.468;2023-02-01T16:32:37;5.40;99.90
22065;DHT22;11197;53.110;8.468;2023-02-01T16:35:21;5.30;99.90
22065;DHT22;11197;53.110;8.468;2023-02-01T16:37:48;5.30;99.90
22065;DHT22;11197;53.110;8.468;2023-02-01T16:40:16;5.20;99.90
22065;DHT22;11197;53.110;8.468;2023-02-01T16:42:42;5.20;99.90
22065;DHT22;11197;53.110;8.468;2023-02-01T16:45:08;5.10;99.90
22065;DHT22;11197;53.110;8.468;2023-02-01T16:47:37;5.10;99.90
22065;DHT22;11197;53.110;8.468;2023-02-01T16:50:04;5.10;99.90
22065;DHT22;11197;53.110;8.468;2023-02-01T16:52:30;5.00;99.90
22065;DHT22;11197;53.110;8.468;2023-02-01T16:54:56;5.10;99.90
22065;DHT22;11197;53.110;8.468;2023-02-01T16:57:22;5.00;99.90
22065;DHT22;11197;53.110;8.468;2023-02-01T16:59:53;5.00;99.90
22065;DHT22;11197;53.110;8.468;2023-02-01T17:02:19;5.00;99.90
22065;DHT22;11197;53.110;8.468;2023-02-01T17:04:46;5.10;99.90
22065;DHT22;11197;53.110;8.468;2023-02-01T17:07:18;5.10;99.90
22065;DHT22;11197;53.110;8.468;2023-02-01T17:09:45;5.10;99.90
22065;DHT22;11197;53.110;8.468;2023-02-01T17:12:37;5.20;99.90
22065;DHT22;11197;53.110;8.468;2023-02-01T17:15:04;5.20;99.90
22065;DHT22;11197;53.110;8.468;2023-02-01T17:17:35;5.30;99.90
22065;DHT22;11197;53.110;8.468;2023-02-01T17:20:03;5.30;99.90
22065;DHT22;11197;53.110;8.468;2023-02-01T17:22:29;5.40;99.90
22065;DHT22;11197;53.110;8.468;2023-02-01T17:24:55;5.40;99.90
22065;DHT22;11197;53.110;8.468;2023-02-01T17:27:21;5.40;99.90
22065;DHT22;11197;53.110;8.468;2023-02-01T17:29:47;5.50;99.90
22065;DHT22;11197;53.110;8.468;2023-02-01T17:32:21;5.50;99.90
22065;DHT22;11197;53.110;8.468;2023-02-01T17:34:47;5.50;99.90
22065;DHT22;11197;53.110;8.468;2023-02-01T17:37:30;5.50;99.90
22065;DHT22;11197;53.110;8.468;2023-02-01T17:39:56;5.50;99.90
22065;DHT22;11197;53.110;8.468;2023-02-01T17:42:24;5.50;99.90
22065;DHT22;11197;53.110;8.468;2023-02-01T17:44:52;5.50;99.90
22065;DHT22;11197;53.110;8.468;2023-02-01T17:47:20;5.50;99.90
22065;DHT22;11197;53.110;8.468;2023-02-01T17:49:45;5.60;99.90
22065;DHT22;11197;53.110;8.468;2023-02-01T17:52:17;5.70;99.90
22065;DHT22;11197;53.110;8.468;2023-02-01T17:54:43;5.70;99.90
22065;DHT22;11197;53.110;8.468;2023-02-01T17:57:12;5.70;99.90
22065;DHT22;11197;53.110;8.468;2023-02-01T17:59:38;5.70;99.90
22065;DHT22;11197;53.110;8.468;2023-02-01T18:02:20;5.70;99.90
22065;DHT22;11197;53.110;8.468;2023-02-01T18:04:47;5.70;99.90
22065;DHT22;11197;53.110;8.468;2023-02-01T18:07:14;5.70;99.90
22065;DHT22;11197;53.110;8.468;2023-02-01T18:09:39;5.70;99.90
22065;DHT22;11197;53.110;8.468;2023-02-01T18:12:11;5.70;99.90
22065;DHT22;11197;53.110;8.468;2023-02-01T18:14:38;5.70;99.90
22065;DHT22;11197;53.110;8.468;2023-02-01T18:17:03;5.70;99.90
22065;DHT22;11197;53.110;8.468;2023-02-01T18:19:29;5.70;99.90
22065;DHT22;11197;53.110;8.468;2023-02-01T18:21:55;5.70;99.90
22065;DHT22;11197;53.110;8.468;2023-02-01T18:24:22;5.80;99.90
22065;DHT22;11197;53.110;8.468;2023-02-01T18:26:49;5.80;99.90
22065;DHT22;11197;53.110;8.468;2023-02-01T18:29:16;5.80;99.90
22065;DHT22;11197;53.110;8.468;2023-02-01T18:31:47;5.80;99.90
22065;DHT22;11197;53.110;8.468;2023-02-01T18:34:15;5.80;99.90
22065;DHT22;11197;53.110;8.468;2023-02-01T18:36:50;5.80;99.90
22065;DHT22;11197;53.110;8.468;2023-02-01T18:39:16;5.80;99.90
22065;DHT22;11197;53.110;8.468;2023-02-01T18:41:47;5.80;99.90
22065;DHT22;11197;53.110;8.468;2023-02-01T18:44:14;5.80;99.90
22065;DHT22;11197;53.110;8.468;2023-02-01T18:46:41;5.80;99.90
22065;DHT22;11197;53.110;8.468;2023-02-01T18:49:07;5.80;99.90
22065;DHT22;11197;53.110;8.468;2023-02-01T18:51:33;5.80;99.90
22065;DHT22;11197;53.110;8.468;2023-02-01T18:53:59;5.90;99.90
22065;DHT22;11197;53.110;8.468;2023-02-01T18:56:25;5.80;99.90
22065;DHT22;11197;53.110;8.468;2023-02-01T18:58:51;5.80;99.90
22065;DHT22;11197;53.110;8.468;2023-02-01T19:01:19;5.80;99.90